createdAt,value
2018-06-10T00:04:36.943Z,7.90
2018-06-10T00:09:31.498Z,7.60
2018-06-10T00:14:26.040Z,8.40
2018-06-10T00:19:20.606Z,8.90
2018-06-10T00:24:15.163Z,7.93
2018-06-10T00:29:14.921Z,7.70
2018-06-10T00:34:09.479Z,7.60
2018-06-10T00:39:04.167Z,7.90
2018-06-10T00:43:58.715Z,7.60
2018-06-10T00:48:53.243Z,8.20
2018-06-10T00:53:47.782Z,8.10
2018-06-10T00:58:42.306Z,8.10
2018-06-10T01:03:36.876Z,7.87
2018-06-10T01:08:31.470Z,9.10
2018-06-10T01:13:26.007Z,8.53
2018-06-10T01:18:20.538Z,8.77
2018-06-10T01:23:15.093Z,8.80
2018-06-10T01:28:09.658Z,8.70
2018-06-10T01:33:04.190Z,8.43
2018-06-10T01:37:58.734Z,7.77
2018-06-10T01:42:53.254Z,8.70
2018-06-10T01:47:47.795Z,7.87
2018-06-10T01:52:42.374Z,8.30
2018-06-10T01:57:36.901Z,8.57
2018-06-10T02:02:31.470Z,8.63
2018-06-10T02:07:26.039Z,8.73
2018-06-10T02:12:20.590Z,8.83
2018-06-10T02:17:15.162Z,8.17
2018-06-10T02:22:09.710Z,7.73
2018-06-10T02:27:04.248Z,7.77
2018-06-10T02:31:58.805Z,7.87
2018-06-10T02:36:53.376Z,8.70
2018-06-10T02:41:47.936Z,7.03
2018-06-10T02:46:42.463Z,7.60
2018-06-10T02:51:36.996Z,7.40
2018-06-10T02:56:31.622Z,7.97
2018-06-10T03:01:26.141Z,7.20
2018-06-10T03:06:20.687Z,7.50
2018-06-10T03:11:15.218Z,7.47
2018-06-10T03:16:09.739Z,6.87
2018-06-10T03:21:04.274Z,6.83
2018-06-10T03:25:58.808Z,6.23
2018-06-10T03:30:53.351Z,6.13
2018-06-10T03:35:47.911Z,6.57
2018-06-10T03:40:42.523Z,6.47
2018-06-10T03:45:37.054Z,6.13
2018-06-10T03:50:31.617Z,6.97
2018-06-10T03:55:26.155Z,6.20
2018-06-10T04:00:20.715Z,6.97
2018-06-10T04:05:15.282Z,6.67
2018-06-10T04:10:09.834Z,6.97
2018-06-10T04:15:04.433Z,7.17
2018-06-10T04:19:59.014Z,7.30
2018-06-10T04:24:53.511Z,7.50
2018-06-10T04:29:48.058Z,7.37
2018-06-10T04:34:42.585Z,7.00
2018-06-10T04:39:37.140Z,6.93
2018-06-10T04:44:31.669Z,6.60
2018-06-10T04:49:26.216Z,6.30
2018-06-10T04:54:20.749Z,6.37
2018-06-10T04:59:15.268Z,7.50
2018-06-10T05:04:09.822Z,6.27
2018-06-10T05:09:05.732Z,7.13
2018-06-10T05:14:00.272Z,6.77
2018-06-10T05:18:54.830Z,7.57
2018-06-10T05:23:49.368Z,8.27
2018-06-10T05:28:43.925Z,8.30
2018-06-10T05:33:38.155Z,8.70
2018-06-10T05:38:32.794Z,7.87
2018-06-10T05:43:27.347Z,8.20
2018-06-10T05:48:21.879Z,8.43
2018-06-10T05:53:16.450Z,8.40
2018-06-10T05:58:11.015Z,6.50
2018-06-10T06:03:05.629Z,9.37
2018-06-10T06:08:00.184Z,10.57
2018-06-10T06:12:54.424Z,9.43
2018-06-10T06:17:48.971Z,10.20
2018-06-10T06:22:43.539Z,9.67
2018-06-10T06:27:38.090Z,10.20
2018-06-10T06:32:33.731Z,8.98
2018-06-10T06:37:28.377Z,8.03
2018-06-10T06:42:22.899Z,7.70
2018-06-10T06:47:17.468Z,8.20
2018-06-10T06:52:12.062Z,8.28
2018-06-10T06:57:06.646Z,8.60
2018-06-10T07:02:01.182Z,8.98
2018-06-10T07:06:55.727Z,8.60
2018-06-10T07:11:50.344Z,8.60
2018-06-10T07:16:44.940Z,8.97
2018-06-10T07:21:39.479Z,8.30
2018-06-10T07:26:34.027Z,8.00
2018-06-10T07:31:29.438Z,6.93
2018-06-10T07:36:24.027Z,5.50
2018-06-10T07:41:18.269Z,6.80
2018-06-10T07:46:12.832Z,6.90
2018-06-10T07:51:07.074Z,6.00
2018-06-10T07:56:01.615Z,7.65
2018-06-10T08:00:56.160Z,6.90
2018-06-10T08:05:50.770Z,6.80
2018-06-10T08:10:45.327Z,7.28
2018-06-10T08:15:39.878Z,6.85
2018-06-10T08:20:34.443Z,6.20
2018-06-10T08:25:29.021Z,5.67
2018-06-10T08:30:23.576Z,6.05
2018-06-10T08:35:18.135Z,6.28
2018-06-10T08:40:12.714Z,5.72
2018-06-10T08:45:06.988Z,6.40
2018-06-10T08:50:01.579Z,5.50
2018-06-10T08:54:56.143Z,6.33
2018-06-10T08:59:50.710Z,5.80
2018-06-10T09:04:45.327Z,5.30
2018-06-10T09:09:39.907Z,5.65
2018-06-10T09:14:34.455Z,5.40
2018-06-10T09:19:29.043Z,5.00
2018-06-10T09:24:23.654Z,5.45
2018-06-10T09:29:18.378Z,5.20
2018-06-10T09:34:12.978Z,5.83
2018-06-10T09:39:09.078Z,4.78
2018-06-10T09:44:04.502Z,4.55
2018-06-10T09:48:59.062Z,3.95
2018-06-10T09:53:53.763Z,4.60
2018-06-10T09:58:48.422Z,4.08
2018-06-10T10:03:43.031Z,4.12
2018-06-10T10:08:37.577Z,4.17
2018-06-10T10:13:32.169Z,4.30
2018-06-10T10:18:26.772Z,3.98
2018-06-10T10:23:21.337Z,4.03
2018-06-10T10:28:15.943Z,3.75
2018-06-10T10:33:10.520Z,3.80
2018-06-10T10:38:04.840Z,3.40
2018-06-10T10:42:59.408Z,3.70
2018-06-10T10:47:53.988Z,3.55
2018-06-10T10:52:48.537Z,3.27
2018-06-10T10:57:43.170Z,3.10
2018-06-10T11:02:38.409Z,3.00
2018-06-10T11:07:32.957Z,3.17
2018-06-10T11:12:27.682Z,3.27
2018-06-10T11:17:22.255Z,2.98
2018-06-10T11:22:16.836Z,2.90
2018-06-10T11:27:11.465Z,2.80
2018-06-10T11:32:06.530Z,2.77
2018-06-10T11:37:01.111Z,2.52
2018-06-10T11:41:55.688Z,2.58
2018-06-10T11:46:50.263Z,2.42
2018-06-10T11:51:44.513Z,2.37
2018-06-10T11:56:39.097Z,2.20
2018-06-10T12:01:33.659Z,2.65
2018-06-10T12:06:28.316Z,2.62
2018-06-10T12:11:22.847Z,2.55
2018-06-10T12:16:17.450Z,2.67
2018-06-10T12:21:12.004Z,2.55
2018-06-10T12:26:06.604Z,2.47
2018-06-10T12:31:01.203Z,2.65
2018-06-10T12:35:55.834Z,2.45
2018-06-10T12:40:50.448Z,2.17
2018-06-10T12:45:45.021Z,2.17
2018-06-10T12:50:39.571Z,2.02
2018-06-10T12:55:34.183Z,2.10
2018-06-10T13:00:28.818Z,2.20
2018-06-10T13:05:23.350Z,2.17
2018-06-10T13:10:17.963Z,2.35
2018-06-10T13:15:12.526Z,1.90
2018-06-10T13:20:07.166Z,2.05
2018-06-10T13:25:01.742Z,2.40
2018-06-10T13:29:56.299Z,2.47
2018-06-10T13:34:50.880Z,2.40
2018-06-10T13:39:45.438Z,2.10
2018-06-10T13:44:40.019Z,1.98
2018-06-10T13:54:29.532Z,2.10
2018-06-10T13:59:24.093Z,2.00
2018-06-10T14:04:18.642Z,2.00
2018-06-10T14:09:13.190Z,1.90
2018-06-10T14:14:07.754Z,1.85
2018-06-10T14:19:02.299Z,2.02
2018-06-10T14:23:56.868Z,2.35
2018-06-10T14:28:51.418Z,2.00
2018-06-10T14:33:45.988Z,1.80
2018-06-10T14:38:40.590Z,1.35
2018-06-10T14:43:35.230Z,1.50
2018-06-10T14:48:29.446Z,1.70
2018-06-10T14:53:24.019Z,1.35
2018-06-10T14:58:18.608Z,1.47
2018-06-10T15:03:13.158Z,1.27
2018-06-10T15:08:07.742Z,1.50
2018-06-10T15:13:02.305Z,1.40
2018-06-10T15:17:56.835Z,1.67
2018-06-10T15:22:51.465Z,1.50
2018-06-10T15:27:46.042Z,1.50
2018-06-10T15:32:40.597Z,1.40
2018-06-10T15:37:35.196Z,1.20
2018-06-10T15:42:29.768Z,1.60
2018-06-10T15:47:24.319Z,1.60
2018-06-10T15:52:18.908Z,1.82
2018-06-10T15:57:13.491Z,1.40
2018-06-10T16:02:08.091Z,1.40
2018-06-10T16:07:02.650Z,1.90
2018-06-10T16:11:57.187Z,1.60
2018-06-10T16:16:51.787Z,1.72
2018-06-10T16:21:46.347Z,1.80
2018-06-10T16:26:40.929Z,1.60
2018-06-10T16:31:35.540Z,1.67
2018-06-10T16:36:30.158Z,1.72
2018-06-10T16:41:24.692Z,1.67
2018-06-10T16:46:19.264Z,1.80
2018-06-10T16:51:13.872Z,1.98
2018-06-10T16:56:08.436Z,1.90
2018-06-10T17:01:03.030Z,1.90
2018-06-10T17:05:57.591Z,1.98
2018-06-10T17:10:52.227Z,1.60
2018-06-10T17:15:46.825Z,1.70
2018-06-10T17:20:41.426Z,1.70
2018-06-10T17:25:35.715Z,2.00
2018-06-10T17:30:30.278Z,2.10
2018-06-10T17:35:24.878Z,2.33
2018-06-10T17:40:19.494Z,1.92
2018-06-10T17:45:14.079Z,1.85
2018-06-10T17:50:08.717Z,2.00
2018-06-10T17:55:03.374Z,1.92
2018-06-10T17:59:57.649Z,2.25
2018-06-10T18:04:52.220Z,1.87
2018-06-10T18:09:46.808Z,2.00
2018-06-10T18:14:41.431Z,1.87
2018-06-10T18:19:36.053Z,1.92
2018-06-10T18:24:30.605Z,2.20
2018-06-10T18:29:25.145Z,2.08
2018-06-10T18:34:19.720Z,2.10
2018-06-10T18:39:14.039Z,2.00
2018-06-10T18:44:08.688Z,2.15
2018-06-10T18:49:03.297Z,2.40
2018-06-10T18:53:57.930Z,1.90
2018-06-10T18:58:52.573Z,2.10
2018-06-10T19:03:47.179Z,2.37
2018-06-10T19:08:41.779Z,2.55
2018-06-10T19:13:36.374Z,2.52
2018-06-10T19:18:30.952Z,2.15
2018-06-10T19:23:25.591Z,2.55
2018-06-10T19:28:20.220Z,2.58
2018-06-10T19:33:14.810Z,2.47
2018-06-10T19:38:09.385Z,2.55
2018-06-10T19:43:04.942Z,2.85
2018-06-10T19:47:59.575Z,2.47
2018-06-10T19:52:54.180Z,2.72
2018-06-10T19:57:48.824Z,2.70
2018-06-10T20:02:43.418Z,2.40
2018-06-10T20:07:38.042Z,2.72
2018-06-10T20:12:32.652Z,2.80
2018-06-10T20:17:27.281Z,2.42
2018-06-10T20:22:21.545Z,2.77
2018-06-10T20:27:16.150Z,2.65
2018-06-10T20:32:10.734Z,2.77
2018-06-10T20:37:05.380Z,2.58
2018-06-10T20:41:59.998Z,3.02
2018-06-10T20:46:54.595Z,3.62
2018-06-10T20:51:49.185Z,2.50
2018-06-10T20:56:43.751Z,2.52
2018-06-10T21:01:38.347Z,2.90
2018-06-10T21:06:32.977Z,3.00
2018-06-10T21:11:27.593Z,2.72
2018-06-10T21:16:22.157Z,2.75
2018-06-10T21:21:16.720Z,2.90
2018-06-10T21:26:11.324Z,2.67
2018-06-10T21:31:05.891Z,3.27
2018-06-10T21:36:00.490Z,2.85
2018-06-10T21:40:55.080Z,3.30
2018-06-10T21:45:49.748Z,3.17
2018-06-10T21:50:44.304Z,3.17
2018-06-10T21:55:38.924Z,2.85
2018-06-10T22:00:33.476Z,2.90
2018-06-10T22:05:28.067Z,2.85
2018-06-10T22:10:22.642Z,3.40
2018-06-10T22:15:17.223Z,2.90
2018-06-10T22:20:11.818Z,3.10
2018-06-10T22:25:06.411Z,2.80
2018-06-10T22:30:00.982Z,2.72
2018-06-10T22:34:55.278Z,2.65
2018-06-10T22:39:49.866Z,2.87
2018-06-10T22:44:44.421Z,3.50
2018-06-10T22:49:38.977Z,3.00
2018-06-10T22:54:44.058Z,3.30
2018-06-10T22:59:39.526Z,3.27
2018-06-10T23:04:34.107Z,3.03
2018-06-10T23:09:28.698Z,2.87
2018-06-10T23:14:23.229Z,3.30
2018-06-10T23:19:18.409Z,2.90
2018-06-10T23:24:13.021Z,2.83
2018-06-10T23:29:07.615Z,3.63
2018-06-10T23:34:02.463Z,2.97
2018-06-10T23:38:57.051Z,3.03
2018-06-10T23:43:51.570Z,3.40
2018-06-10T23:48:46.125Z,3.10
2018-06-10T23:53:40.681Z,3.50
2018-06-10T23:58:35.229Z,3.60
